createdAt,value
2019-06-20T00:01:10.634Z,69.00
2019-06-20T00:03:39.462Z,69.20
2019-06-20T00:06:07.970Z,69.00
2019-06-20T00:08:36.401Z,69.00
2019-06-20T00:11:04.968Z,69.20
2019-06-20T00:13:33.396Z,69.80
2019-06-20T00:16:02.852Z,69.90
2019-06-20T00:18:31.266Z,69.80
2019-06-20T00:20:59.671Z,70.10
2019-06-20T00:23:29.989Z,70.30
2019-06-20T00:25:58.438Z,69.70
2019-06-20T00:28:26.859Z,69.30
2019-06-20T00:30:55.346Z,69.00
2019-06-20T00:33:23.747Z,68.90
2019-06-20T00:35:52.155Z,69.30
2019-06-20T00:38:20.578Z,69.90
2019-06-20T00:40:48.979Z,70.30
2019-06-20T00:43:19.250Z,70.50
2019-06-20T00:45:47.777Z,70.50
2019-06-20T00:48:16.258Z,70.20
2019-06-20T00:50:44.667Z,70.60
2019-06-20T00:53:13.081Z,70.60
2019-06-20T00:55:41.478Z,70.80
2019-06-20T00:58:09.900Z,71.10
2019-06-20T01:00:38.653Z,71.30
2019-06-20T01:03:08.850Z,71.10
2019-06-20T01:05:37.277Z,71.00
2019-06-20T01:08:05.768Z,71.50
2019-06-20T01:10:34.161Z,71.20
2019-06-20T01:13:02.589Z,71.10
2019-06-20T01:15:30.993Z,71.50
2019-06-20T01:17:59.403Z,72.40
2019-06-20T01:20:27.803Z,71.40
2019-06-20T01:22:56.562Z,71.50
2019-06-20T01:25:42.901Z,71.70
2019-06-20T01:28:11.598Z,71.80
2019-06-20T01:30:40.012Z,71.90
2019-06-20T01:33:08.490Z,71.90
2019-06-20T01:35:36.966Z,72.30
2019-06-20T01:38:05.447Z,72.50
2019-06-20T01:40:33.923Z,72.70
2019-06-20T01:43:02.422Z,73.30
2019-06-20T01:45:31.543Z,73.40
2019-06-20T01:48:00.018Z,73.40
2019-06-20T01:50:28.415Z,73.50
2019-06-20T01:52:56.907Z,73.40
2019-06-20T01:55:25.314Z,73.20
2019-06-20T01:57:53.732Z,72.80
2019-06-20T02:00:45.538Z,72.50
2019-06-20T02:03:14.794Z,72.60
2019-06-20T02:05:43.270Z,72.60
2019-06-20T02:08:11.712Z,72.00
2019-06-20T02:10:40.183Z,72.60
2019-06-20T02:13:09.167Z,72.10
2019-06-20T02:15:37.653Z,71.60
2019-06-20T02:18:06.129Z,71.40
2019-06-20T02:20:52.148Z,71.10
2019-06-20T02:23:21.666Z,71.10
2019-06-20T02:25:50.071Z,70.80
2019-06-20T02:28:18.550Z,70.80
2019-06-20T02:30:47.109Z,70.80
2019-06-20T02:33:15.600Z,70.70
2019-06-20T02:35:44.134Z,70.50
2019-06-20T02:38:12.728Z,70.80
2019-06-20T02:40:41.270Z,70.90
2019-06-20T02:43:11.259Z,69.80
2019-06-20T02:45:39.813Z,70.00
2019-06-20T02:48:08.214Z,69.90
2019-06-20T02:50:36.630Z,69.90
2019-06-20T02:53:05.596Z,70.00
2019-06-20T02:55:35.165Z,70.10
2019-06-20T02:58:03.743Z,70.10
2019-06-20T03:00:41.174Z,70.30
2019-06-20T03:03:09.585Z,70.30
2019-06-20T03:05:39.566Z,70.70
2019-06-20T03:08:08.027Z,71.10
2019-06-20T03:10:36.426Z,71.10
2019-06-20T03:13:05.115Z,71.40
2019-06-20T03:15:33.602Z,71.30
2019-06-20T03:18:02.032Z,70.90
2019-06-20T03:20:30.515Z,71.10
2019-06-20T03:22:58.920Z,71.00
2019-06-20T03:25:29.176Z,70.80
2019-06-20T03:27:57.582Z,70.50
2019-06-20T03:30:26.684Z,70.30
2019-06-20T03:32:55.182Z,70.40
2019-06-20T03:35:23.611Z,70.60
2019-06-20T03:37:52.074Z,70.40
2019-06-20T03:40:20.469Z,70.00
2019-06-20T03:42:50.174Z,70.00
2019-06-20T03:45:18.585Z,69.90
2019-06-20T03:47:46.996Z,70.10
2019-06-20T03:50:15.540Z,70.90
2019-06-20T03:52:43.954Z,69.80
2019-06-20T03:55:12.607Z,69.70
2019-06-20T03:57:41.096Z,69.30
2019-06-20T04:00:09.910Z,69.40
2019-06-20T04:02:38.381Z,69.80
2019-06-20T04:05:06.858Z,70.40
2019-06-20T04:07:35.253Z,69.80
2019-06-20T04:10:05.183Z,69.90
2019-06-20T04:12:33.695Z,69.60
2019-06-20T04:15:15.060Z,69.60
2019-06-20T04:17:32.232Z,69.10
2019-06-20T04:20:00.640Z,69.00
2019-06-20T04:22:29.036Z,69.90
2019-06-20T04:24:57.537Z,69.00
2019-06-20T04:27:25.930Z,69.30
2019-06-20T04:29:54.357Z,68.70
2019-06-20T04:32:22.762Z,69.60
2019-06-20T04:34:51.193Z,69.60
2019-06-20T04:37:19.830Z,68.80
2019-06-20T04:39:48.231Z,68.50
2019-06-20T04:42:18.830Z,69.30
2019-06-20T04:44:46.768Z,68.70
2019-06-20T04:47:16.607Z,69.20
2019-06-20T04:49:45.026Z,69.40
2019-06-20T04:52:13.431Z,68.90
2019-06-20T04:54:42.018Z,69.90
2019-06-20T04:57:10.433Z,69.90
2019-06-20T04:59:38.843Z,70.40
2019-06-20T05:02:07.231Z,70.90
2019-06-20T05:04:35.658Z,70.80
2019-06-20T05:07:16.210Z,70.80
2019-06-20T05:09:44.615Z,70.50
2019-06-20T05:12:13.021Z,70.50
2019-06-20T05:14:41.434Z,70.00
2019-06-20T05:17:10.784Z,69.50
2019-06-20T05:19:39.198Z,69.20
2019-06-20T05:22:07.690Z,69.80
2019-06-20T05:24:36.161Z,70.70
2019-06-20T05:27:04.587Z,71.20
2019-06-20T05:29:32.991Z,71.40
2019-06-20T05:32:01.442Z,71.50
2019-06-20T05:34:31.167Z,72.80
2019-06-20T05:36:59.674Z,70.80
2019-06-20T05:39:28.145Z,71.00
2019-06-20T05:41:56.552Z,70.40
2019-06-20T05:44:24.965Z,69.80
2019-06-20T05:47:08.521Z,70.50
2019-06-20T05:49:23.668Z,70.00
2019-06-20T05:51:52.092Z,69.50
2019-06-20T05:54:20.503Z,68.50
2019-06-20T05:56:48.924Z,67.50
2019-06-20T05:59:17.400Z,66.60
2019-06-20T06:01:45.807Z,66.30
2019-06-20T06:04:14.206Z,66.00
2019-06-20T06:06:42.970Z,65.80
2019-06-20T06:09:11.418Z,65.70
2019-06-20T06:11:40.833Z,64.60
2019-06-20T06:14:09.226Z,66.10
2019-06-20T06:16:39.134Z,65.40
2019-06-20T06:19:07.623Z,64.20
2019-06-20T06:21:36.044Z,65.00
2019-06-20T06:24:04.515Z,65.50
2019-06-20T06:26:32.918Z,64.00
2019-06-20T06:29:03.034Z,64.40
2019-06-20T06:31:31.453Z,64.20
2019-06-20T06:33:59.841Z,62.60
2019-06-20T06:36:28.266Z,63.30
2019-06-20T06:38:56.662Z,63.50
2019-06-20T06:41:25.314Z,62.10
2019-06-20T06:43:53.740Z,60.90
2019-06-20T06:46:22.146Z,59.90
2019-06-20T06:48:50.724Z,60.90
2019-06-20T06:51:19.135Z,58.60
2019-06-20T06:53:47.602Z,58.40
2019-06-20T06:56:16.015Z,58.80
2019-06-20T06:58:44.559Z,58.40
2019-06-20T07:01:13.042Z,59.10
2019-06-20T07:03:41.498Z,58.40
2019-06-20T07:06:09.994Z,58.70
2019-06-20T07:08:38.391Z,59.10
2019-06-20T07:11:07.462Z,58.50
2019-06-20T07:13:35.938Z,58.60
2019-06-20T07:16:04.710Z,58.80
2019-06-20T07:18:33.291Z,56.80
2019-06-20T07:21:01.760Z,56.10
2019-06-20T07:23:30.788Z,55.50
2019-06-20T07:25:59.198Z,53.70
2019-06-20T07:28:27.600Z,53.90
2019-06-20T07:30:56.000Z,53.20
2019-06-20T07:33:24.475Z,52.40
2019-06-20T07:35:53.002Z,53.00
2019-06-20T07:38:21.398Z,51.60
2019-06-20T07:40:49.825Z,51.60
2019-06-20T07:43:18.263Z,50.10
2019-06-20T07:46:01.649Z,50.60
2019-06-20T07:48:16.905Z,52.60
2019-06-20T07:50:45.771Z,52.10
2019-06-20T07:53:14.630Z,51.60
2019-06-20T07:55:43.391Z,53.20
2019-06-20T07:58:11.814Z,53.20
2019-06-20T08:00:40.297Z,54.40
2019-06-20T08:03:08.709Z,54.40
2019-06-20T08:05:37.469Z,54.30
2019-06-20T08:08:05.915Z,54.30
2019-06-20T08:10:34.322Z,54.30
2019-06-20T08:13:02.728Z,54.80
2019-06-20T08:15:31.126Z,53.80
2019-06-20T08:18:01.259Z,52.60
2019-06-20T08:20:29.747Z,51.80
2019-06-20T08:22:58.142Z,52.70
2019-06-20T08:25:26.583Z,52.30
2019-06-20T08:27:55.966Z,51.00
2019-06-20T08:30:33.464Z,51.00
2019-06-20T08:33:07.570Z,51.30
2019-06-20T08:35:33.287Z,52.40
2019-06-20T08:38:03.719Z,51.10
2019-06-20T08:40:35.871Z,49.00
2019-06-20T08:43:06.316Z,48.80
2019-06-20T08:45:35.270Z,47.40
2019-06-20T08:48:04.742Z,49.60
2019-06-20T08:50:33.396Z,49.80
2019-06-20T08:53:01.926Z,49.30
2019-06-20T08:55:30.902Z,50.80
2019-06-20T08:58:01.048Z,51.20
2019-06-20T09:00:30.108Z,49.90
2019-06-20T09:02:58.732Z,50.60
2019-06-20T09:05:30.389Z,50.00
2019-06-20T09:07:58.994Z,49.10
2019-06-20T09:10:39.941Z,48.00
2019-06-20T09:13:10.162Z,48.40
2019-06-20T09:15:38.663Z,47.60
2019-06-20T09:18:07.570Z,48.90
2019-06-20T09:20:36.205Z,47.50
2019-06-20T09:23:05.071Z,47.30
2019-06-20T09:25:33.542Z,47.80
2019-06-20T09:28:02.647Z,46.20
2019-06-20T09:30:31.378Z,45.20
2019-06-20T09:33:00.058Z,46.70
2019-06-20T09:35:28.523Z,46.10
2019-06-20T09:37:57.525Z,45.60
2019-06-20T09:40:27.536Z,45.50
2019-06-20T09:42:56.481Z,44.70
2019-06-20T09:45:25.594Z,45.80
2019-06-20T09:47:54.160Z,45.30
2019-06-20T09:50:23.173Z,46.00
2019-06-20T09:52:53.155Z,44.60
2019-06-20T09:55:22.201Z,44.50
2019-06-20T09:57:52.138Z,45.10
2019-06-20T10:00:23.801Z,45.50
2019-06-20T10:02:54.431Z,45.50
2019-06-20T10:05:23.461Z,44.30
2019-06-20T10:07:52.371Z,45.10
2019-06-20T10:10:22.902Z,45.20
2019-06-20T10:12:51.778Z,45.10
2019-06-20T10:15:23.814Z,45.70
2019-06-20T10:17:52.646Z,46.00
2019-06-20T10:20:22.366Z,46.00
2019-06-20T10:22:51.074Z,45.60
2019-06-20T10:25:20.594Z,45.30
2019-06-20T10:27:49.763Z,45.30
2019-06-20T10:30:21.998Z,44.40
2019-06-20T10:32:50.991Z,45.00
2019-06-20T10:35:21.404Z,43.80
2019-06-20T10:37:50.347Z,43.60
2019-06-20T10:40:20.121Z,43.90
2019-06-20T10:42:50.152Z,44.60
2019-06-20T10:45:21.452Z,43.10
2019-06-20T10:47:50.937Z,43.90
2019-06-20T10:50:20.461Z,43.60
2019-06-20T10:52:50.062Z,43.30
2019-06-20T10:55:19.141Z,43.00
2019-06-20T10:57:49.708Z,42.70
2019-06-20T11:00:30.141Z,44.10
2019-06-20T11:02:49.542Z,43.90
2019-06-20T11:05:18.248Z,42.80
2019-06-20T11:07:47.590Z,43.10
2019-06-20T11:10:17.116Z,44.50
2019-06-20T11:12:52.300Z,43.20
2019-06-20T11:15:16.870Z,43.20
2019-06-20T11:17:46.635Z,44.30
2019-06-20T11:20:16.094Z,43.30
2019-06-20T11:22:45.379Z,43.60
2019-06-20T11:25:18.315Z,44.10
2019-06-20T11:27:47.131Z,45.10
2019-06-20T11:30:23.887Z,46.00
2019-06-20T11:32:52.461Z,45.20
2019-06-20T11:35:21.475Z,45.20
2019-06-20T11:37:50.215Z,45.40
2019-06-20T11:40:18.789Z,45.60
2019-06-20T11:42:47.470Z,45.80
2019-06-20T11:45:17.399Z,46.00
2019-06-20T11:47:47.151Z,46.00
2019-06-20T11:50:16.765Z,45.80
2019-06-20T11:52:47.365Z,46.60
2019-06-20T11:55:17.421Z,46.60
2019-06-20T11:57:46.078Z,46.60
2019-06-20T12:00:15.482Z,47.80
2019-06-20T12:02:44.457Z,47.50
2019-06-20T12:05:14.879Z,47.90
2019-06-20T12:07:45.317Z,47.30
2019-06-20T12:10:15.385Z,46.50
2019-06-20T12:12:44.727Z,47.00
2019-06-20T12:15:16.333Z,46.10
2019-06-20T12:17:45.342Z,46.60
2019-06-20T12:20:16.906Z,45.60
2019-06-20T12:22:46.512Z,44.90
2019-06-20T12:25:16.243Z,45.80
2019-06-20T12:27:45.453Z,46.50
2019-06-20T12:30:20.656Z,46.80
2019-06-20T12:32:49.513Z,48.90
2019-06-20T12:35:18.660Z,47.30
2019-06-20T12:37:47.770Z,48.20
2019-06-20T12:40:16.613Z,47.80
2019-06-20T12:42:45.020Z,47.10
2019-06-20T12:45:16.626Z,47.90
2019-06-20T12:47:46.085Z,47.60
2019-06-20T12:50:15.478Z,47.70
2019-06-20T12:52:47.446Z,47.20
2019-06-20T12:55:16.488Z,48.30
2019-06-20T12:57:46.353Z,47.40
2019-06-20T13:00:17.217Z,47.20
2019-06-20T13:02:45.837Z,47.20
2019-06-20T13:05:16.128Z,47.10
2019-06-20T13:07:45.019Z,48.20
2019-06-20T13:10:15.215Z,50.50
2019-06-20T13:12:44.311Z,51.20
2019-06-20T13:15:13.262Z,51.60
2019-06-20T13:17:43.146Z,50.80
2019-06-20T13:20:12.694Z,51.00
2019-06-20T13:22:42.731Z,51.20
2019-06-20T13:25:11.675Z,51.50
2019-06-20T13:27:41.065Z,52.00
2019-06-20T13:30:10.194Z,52.00
2019-06-20T13:32:40.220Z,53.20
2019-06-20T13:35:09.774Z,53.80
2019-06-20T13:37:41.642Z,55.00
2019-06-20T13:40:11.223Z,54.90
2019-06-20T13:42:42.012Z,55.00
2019-06-20T13:45:19.023Z,57.30
2019-06-20T13:47:47.896Z,58.00
2019-06-20T13:50:16.578Z,57.70
2019-06-20T13:52:48.748Z,57.00
2019-06-20T13:55:16.147Z,56.30
2019-06-20T13:57:45.279Z,54.90
2019-06-20T14:00:16.418Z,54.60
2019-06-20T14:02:46.816Z,53.90
2019-06-20T14:05:16.532Z,54.90
2019-06-20T14:07:48.389Z,54.10
2019-06-20T14:10:15.728Z,53.90
2019-06-20T14:12:44.735Z,54.10
2019-06-20T14:15:13.557Z,54.20
2019-06-20T14:17:43.165Z,54.20
2019-06-20T14:20:14.175Z,54.50
2019-06-20T14:22:42.916Z,54.40
2019-06-20T14:25:12.068Z,54.80
2019-06-20T14:27:40.485Z,55.00
2019-06-20T14:30:09.743Z,55.60
2019-06-20T14:32:38.147Z,55.90
2019-06-20T14:35:07.276Z,55.50
2019-06-20T14:37:36.891Z,55.40
2019-06-20T14:40:07.378Z,55.70
2019-06-20T14:42:36.045Z,55.60
2019-06-20T14:45:06.996Z,55.20
2019-06-20T14:47:35.854Z,55.30
2019-06-20T14:50:07.097Z,55.50
2019-06-20T14:52:35.503Z,56.00
2019-06-20T14:55:08.008Z,56.10
2019-06-20T14:57:36.453Z,56.50
2019-06-20T15:00:10.499Z,56.30
2019-06-20T15:02:39.238Z,56.60
2019-06-20T15:05:15.617Z,57.20
2019-06-20T15:07:46.708Z,59.20
2019-06-20T15:10:17.267Z,59.80
2019-06-20T15:12:47.437Z,60.20
2019-06-20T15:15:15.990Z,61.00
2019-06-20T15:17:46.551Z,61.60
2019-06-20T15:20:14.713Z,61.30
2019-06-20T15:22:43.201Z,64.60
2019-06-20T15:25:13.528Z,62.90
2019-06-20T15:27:41.951Z,61.40
2019-06-20T15:30:11.019Z,61.00
2019-06-20T15:32:53.363Z,62.90
2019-06-20T15:35:11.054Z,59.90
2019-06-20T15:37:39.465Z,59.90
2019-06-20T15:40:08.720Z,60.10
2019-06-20T15:42:38.899Z,60.00
2019-06-20T15:45:08.149Z,59.00
2019-06-20T15:47:37.216Z,58.50
2019-06-20T15:50:11.997Z,57.80
2019-06-20T15:52:41.655Z,58.50
2019-06-20T15:55:11.816Z,56.00
2019-06-20T15:57:40.672Z,55.60
2019-06-20T16:00:10.628Z,54.10
2019-06-20T16:02:39.193Z,52.90
2019-06-20T16:05:08.738Z,53.30
2019-06-20T16:07:37.436Z,53.20
2019-06-20T16:10:08.141Z,53.40
2019-06-20T16:12:36.557Z,53.50
2019-06-20T16:15:13.809Z,52.70
2019-06-20T16:17:42.211Z,53.60
2019-06-20T16:20:12.038Z,52.30
2019-06-20T16:22:40.523Z,51.10
2019-06-20T16:25:09.094Z,50.00
2019-06-20T16:27:37.601Z,49.70
2019-06-20T16:30:08.108Z,49.50
2019-06-20T16:32:36.514Z,49.90
2019-06-20T16:35:07.011Z,51.00
2019-06-20T16:37:35.487Z,52.50
2019-06-20T16:40:06.992Z,54.50
2019-06-20T16:42:36.390Z,55.60
2019-06-20T16:45:09.762Z,55.90
2019-06-20T16:47:43.826Z,56.80
2019-06-20T16:50:12.431Z,56.80
2019-06-20T16:52:40.856Z,56.10
2019-06-20T16:55:09.700Z,56.60
2019-06-20T16:57:38.122Z,57.10
2019-06-20T17:00:08.762Z,56.80
2019-06-20T17:02:37.166Z,55.80
2019-06-20T17:05:06.737Z,55.90
2019-06-20T17:07:35.195Z,56.10
2019-06-20T17:10:07.117Z,56.50
2019-06-20T17:12:35.520Z,56.70
2019-06-20T17:15:05.996Z,56.10
2019-06-20T17:17:34.393Z,56.50
2019-06-20T17:20:03.399Z,56.60
2019-06-20T17:22:31.804Z,57.10
2019-06-20T17:25:00.230Z,57.80
2019-06-20T17:27:29.219Z,57.80
2019-06-20T17:29:57.714Z,57.80
2019-06-20T17:32:26.215Z,57.20
2019-06-20T17:34:54.650Z,58.00
2019-06-20T17:37:23.065Z,57.50
2019-06-20T17:39:52.873Z,56.50
2019-06-20T17:42:21.263Z,56.60
2019-06-20T17:44:49.928Z,56.70
2019-06-20T17:47:18.457Z,56.70
2019-06-20T17:49:46.868Z,56.40
2019-06-20T17:52:15.315Z,55.90
2019-06-20T17:54:43.718Z,56.10
2019-06-20T17:57:12.318Z,56.00
2019-06-20T17:59:40.898Z,57.10
2019-06-20T18:02:09.413Z,57.00
2019-06-20T18:04:37.824Z,56.60
2019-06-20T18:07:06.232Z,56.10
2019-06-20T18:09:34.987Z,57.00
2019-06-20T18:12:03.504Z,57.10
2019-06-20T18:14:34.041Z,57.00
2019-06-20T18:17:02.110Z,57.00
2019-06-20T18:19:30.518Z,56.60
2019-06-20T18:22:00.691Z,56.50
2019-06-20T18:24:29.853Z,55.40
2019-06-20T18:27:00.367Z,55.40
2019-06-20T18:29:29.741Z,55.90
2019-06-20T18:31:59.058Z,53.80
2019-06-20T18:34:30.209Z,53.60
2019-06-20T18:36:58.545Z,54.00
2019-06-20T18:39:27.476Z,54.50
2019-06-20T18:41:56.258Z,54.60
2019-06-20T18:44:28.235Z,55.00
2019-06-20T18:46:57.248Z,54.70
2019-06-20T18:49:27.907Z,54.60
2019-06-20T18:51:56.859Z,54.10
2019-06-20T18:54:25.650Z,54.70
2019-06-20T18:56:54.571Z,54.30
2019-06-20T18:59:23.614Z,54.80
2019-06-20T19:01:52.950Z,54.70
2019-06-20T19:04:22.453Z,55.10
2019-06-20T19:06:51.913Z,55.60
2019-06-20T19:09:20.771Z,55.80
2019-06-20T19:11:49.532Z,56.10
2019-06-20T19:14:18.039Z,56.10
2019-06-20T19:16:46.741Z,56.00
2019-06-20T19:19:15.137Z,56.10
2019-06-20T19:21:43.565Z,56.30
2019-06-20T19:24:12.284Z,56.50
2019-06-20T19:26:40.677Z,57.00
2019-06-20T19:29:09.283Z,56.30
2019-06-20T19:31:37.717Z,56.80
2019-06-20T19:34:06.135Z,57.00
2019-06-20T19:36:42.882Z,56.50
2019-06-20T19:39:11.292Z,57.10
2019-06-20T19:41:39.858Z,56.80
2019-06-20T19:44:08.487Z,56.80
2019-06-20T19:46:36.960Z,57.00
2019-06-20T19:49:05.453Z,57.20
2019-06-20T19:51:33.952Z,57.10
2019-06-20T19:54:02.455Z,57.20
2019-06-20T19:56:30.902Z,56.60
2019-06-20T19:58:59.404Z,57.40
2019-06-20T20:01:27.829Z,57.50
2019-06-20T20:03:56.250Z,55.60
2019-06-20T20:06:24.663Z,56.40
2019-06-20T20:08:53.168Z,56.50
2019-06-20T20:11:21.913Z,56.90
2019-06-20T20:13:50.363Z,57.10
2019-06-20T20:16:18.791Z,57.20
2019-06-20T20:18:47.193Z,57.60
2019-06-20T20:21:15.625Z,58.00
2019-06-20T20:23:44.337Z,58.00
2019-06-20T20:26:12.721Z,58.00
2019-06-20T20:28:41.122Z,58.30
2019-06-20T20:31:09.539Z,58.50
2019-06-20T20:33:37.930Z,58.80
2019-06-20T20:36:15.743Z,59.00
2019-06-20T20:38:37.788Z,58.80
2019-06-20T20:41:06.248Z,59.10
2019-06-20T20:43:34.693Z,59.30
2019-06-20T20:46:03.270Z,59.20
2019-06-20T20:48:32.344Z,59.30
2019-06-20T20:51:00.796Z,59.30
2019-06-20T20:53:29.449Z,59.80
2019-06-20T20:55:57.882Z,59.80
2019-06-20T20:58:26.286Z,60.10
2019-06-20T21:01:00.538Z,60.10
2019-06-20T21:03:28.967Z,60.50
2019-06-20T21:05:57.453Z,60.60
2019-06-20T21:08:25.854Z,60.80
2019-06-20T21:10:54.699Z,60.20
2019-06-20T21:13:23.485Z,59.70
2019-06-20T21:15:51.967Z,59.50
2019-06-20T21:18:20.377Z,59.60
2019-06-20T21:20:48.972Z,59.50
2019-06-20T21:23:18.404Z,59.50
2019-06-20T21:25:46.846Z,59.60
2019-06-20T21:28:15.263Z,59.50
2019-06-20T21:30:43.690Z,59.60
2019-06-20T21:33:12.133Z,59.70
2019-06-20T21:35:40.915Z,60.00
2019-06-20T21:38:09.324Z,60.00
2019-06-20T21:40:37.738Z,60.40
2019-06-20T21:43:06.357Z,60.30
2019-06-20T21:45:34.777Z,60.30
2019-06-20T21:48:03.258Z,60.40
2019-06-20T21:50:32.194Z,60.70
2019-06-20T21:53:00.752Z,61.00
2019-06-20T21:55:29.194Z,61.00
2019-06-20T21:57:57.647Z,61.40
2019-06-20T22:00:38.887Z,61.10
2019-06-20T22:03:09.005Z,61.20
2019-06-20T22:05:37.899Z,61.30
2019-06-20T22:08:06.444Z,61.20
2019-06-20T22:10:35.146Z,61.70
2019-06-20T22:13:03.881Z,62.00
2019-06-20T22:15:32.387Z,62.30
2019-06-20T22:18:00.807Z,62.90
2019-06-20T22:20:29.554Z,63.40
2019-06-20T22:22:58.005Z,63.40
2019-06-20T22:25:26.682Z,64.10
2019-06-20T22:27:55.088Z,63.80
2019-06-20T22:30:32.085Z,63.80
2019-06-20T22:33:00.559Z,64.00
2019-06-20T22:35:28.995Z,64.60
2019-06-20T22:37:57.408Z,64.00
2019-06-20T22:40:25.846Z,64.20
2019-06-20T22:42:54.256Z,64.30
2019-06-20T22:45:22.711Z,64.40
2019-06-20T22:47:51.105Z,64.90
2019-06-20T22:50:19.792Z,64.70
2019-06-20T22:52:48.199Z,65.00
2019-06-20T22:55:16.751Z,64.90
2019-06-20T22:57:45.223Z,65.30
2019-06-20T23:00:14.302Z,66.10
2019-06-20T23:02:42.744Z,65.20
2019-06-20T23:05:11.353Z,65.30
2019-06-20T23:07:40.127Z,65.50
2019-06-20T23:10:11.272Z,65.20
2019-06-20T23:12:39.591Z,65.10
2019-06-20T23:15:10.548Z,65.20
2019-06-20T23:17:38.996Z,65.20
2019-06-20T23:20:11.092Z,65.20
2019-06-20T23:22:39.509Z,65.30
2019-06-20T23:25:11.989Z,65.30
2019-06-20T23:27:40.412Z,65.60
2019-06-20T23:30:09.631Z,65.70
2019-06-20T23:32:38.383Z,65.60
2019-06-20T23:35:07.529Z,65.60
2019-06-20T23:37:36.001Z,64.60
2019-06-20T23:40:06.966Z,64.00
2019-06-20T23:42:35.410Z,62.20
2019-06-20T23:45:04.958Z,61.20
2019-06-20T23:47:33.404Z,61.00
2019-06-20T23:50:01.814Z,60.70
2019-06-20T23:52:32.016Z,60.90
2019-06-20T23:55:00.455Z,60.60
2019-06-20T23:57:28.918Z,60.10
2019-06-20T23:59:57.375Z,59.80
